createdAt,value
2018-07-23T00:02:22.853Z,3.12
2018-07-23T00:04:56.288Z,3.17
2018-07-23T00:07:29.734Z,2.80
2018-07-23T00:10:03.292Z,3.20
2018-07-23T00:12:36.898Z,3.15
2018-07-23T00:15:10.350Z,3.40
2018-07-23T00:17:43.945Z,3.25
2018-07-23T00:20:17.531Z,3.30
2018-07-23T00:22:51.020Z,3.62
2018-07-23T00:25:24.658Z,3.10
2018-07-23T00:27:58.260Z,3.30
2018-07-23T00:30:31.833Z,3.30
2018-07-23T00:33:05.343Z,3.52
2018-07-23T00:35:38.933Z,3.40
2018-07-23T00:38:12.499Z,3.37
2018-07-23T00:40:46.019Z,3.83
2018-07-23T00:43:19.553Z,3.62
2018-07-23T00:45:53.137Z,3.15
2018-07-23T00:48:26.679Z,3.50
2018-07-23T00:51:00.267Z,3.75
2018-07-23T00:53:33.886Z,3.15
2018-07-23T00:56:07.501Z,2.98
2018-07-23T00:58:40.971Z,3.50
2018-07-23T01:01:14.752Z,3.40
2018-07-23T01:03:48.354Z,3.12
2018-07-23T01:06:21.963Z,3.77
2018-07-23T01:08:55.426Z,4.10
2018-07-23T01:11:28.803Z,3.52
2018-07-23T01:14:02.360Z,3.20
2018-07-23T01:16:36.057Z,3.05
2018-07-23T01:19:09.661Z,3.22
2018-07-23T01:21:43.221Z,3.95
2018-07-23T01:24:16.687Z,3.60
2018-07-23T01:26:50.228Z,3.17
2018-07-23T01:29:23.826Z,3.27
2018-07-23T01:31:57.394Z,3.00
2018-07-23T01:34:31.133Z,3.12
2018-07-23T01:37:04.983Z,4.15
2018-07-23T01:39:38.576Z,3.62
2018-07-23T01:42:12.305Z,2.87
2018-07-23T01:44:45.890Z,3.05
2018-07-23T01:47:19.442Z,2.50
2018-07-23T01:49:53.007Z,3.15
2018-07-23T01:52:26.669Z,3.30
2018-07-23T01:55:00.267Z,3.20
2018-07-23T01:57:33.856Z,3.37
2018-07-23T02:00:07.816Z,2.87
2018-07-23T02:02:41.446Z,3.10
2018-07-23T02:05:15.020Z,3.45
2018-07-23T02:07:48.672Z,3.42
2018-07-23T02:10:22.342Z,3.17
2018-07-23T02:12:55.878Z,3.50
2018-07-23T02:15:29.479Z,3.22
2018-07-23T02:18:03.077Z,3.37
2018-07-23T02:20:36.678Z,3.40
2018-07-23T02:23:10.295Z,3.00
2018-07-23T02:25:43.888Z,3.60
2018-07-23T02:28:17.483Z,3.90
2018-07-23T02:30:50.910Z,3.52
2018-07-23T02:33:24.517Z,3.30
2018-07-23T02:35:58.135Z,3.33
2018-07-23T02:38:31.762Z,3.80
2018-07-23T02:41:05.426Z,3.75
2018-07-23T02:43:39.018Z,3.50
2018-07-23T02:46:12.447Z,3.77
2018-07-23T02:48:46.072Z,3.80
2018-07-23T02:51:19.682Z,3.55
2018-07-23T02:53:53.234Z,3.77
2018-07-23T02:56:26.841Z,3.67
2018-07-23T02:59:00.415Z,3.87
2018-07-23T03:01:34.048Z,3.60
2018-07-23T03:04:07.612Z,4.03
2018-07-23T03:06:41.306Z,3.90
2018-07-23T03:09:14.908Z,4.05
2018-07-23T03:11:48.616Z,4.05
2018-07-23T03:14:22.213Z,4.40
2018-07-23T03:16:55.951Z,3.77
2018-07-23T03:19:29.549Z,3.65
2018-07-23T03:22:03.192Z,4.33
2018-07-23T03:24:36.743Z,4.20
2018-07-23T03:27:10.286Z,4.50
2018-07-23T03:29:43.882Z,4.42
2018-07-23T03:32:17.685Z,4.70
2018-07-23T03:34:51.260Z,4.80
2018-07-23T03:37:24.745Z,5.17
2018-07-23T03:39:58.278Z,5.10
2018-07-23T03:42:31.771Z,5.12
2018-07-23T03:45:06.368Z,4.92
2018-07-23T03:47:39.985Z,5.08
2018-07-23T03:50:13.562Z,4.95
2018-07-23T03:52:47.176Z,4.62
2018-07-23T03:55:20.771Z,5.00
2018-07-23T03:57:54.487Z,4.90
2018-07-23T04:00:28.079Z,4.83
2018-07-23T04:03:01.649Z,4.78
2018-07-23T04:05:35.242Z,4.85
2018-07-23T04:08:08.843Z,4.95
2018-07-23T04:10:42.443Z,4.65
2018-07-23T04:13:16.023Z,4.17
2018-07-23T04:15:49.654Z,4.75
2018-07-23T04:18:23.176Z,4.25
2018-07-23T04:20:56.666Z,4.58
2018-07-23T04:23:30.256Z,4.20
2018-07-23T04:26:03.875Z,4.85
2018-07-23T04:28:37.390Z,4.90
2018-07-23T04:31:10.914Z,4.65
2018-07-23T04:33:44.560Z,4.25
2018-07-23T04:36:18.192Z,4.15
2018-07-23T04:38:51.734Z,4.67
2018-07-23T04:41:25.299Z,4.60
2018-07-23T04:43:58.850Z,4.83
2018-07-23T04:46:32.504Z,4.42
2018-07-23T04:49:06.074Z,4.75
2018-07-23T04:51:39.728Z,5.05
2018-07-23T04:54:13.337Z,5.12
2018-07-23T04:56:46.937Z,5.10
2018-07-23T04:59:20.482Z,5.08
2018-07-23T05:01:54.155Z,5.28
2018-07-23T05:04:27.757Z,5.25
2018-07-23T05:07:01.258Z,5.65
2018-07-23T05:09:34.815Z,5.40
2018-07-23T05:12:08.325Z,5.65
2018-07-23T05:14:41.903Z,5.75
2018-07-23T05:17:15.531Z,5.37
2018-07-23T05:19:49.122Z,5.30
2018-07-23T05:22:22.682Z,5.42
2018-07-23T05:24:56.218Z,5.55
2018-07-23T05:27:29.938Z,4.85
2018-07-23T05:30:03.515Z,5.50
2018-07-23T05:32:37.147Z,6.10
2018-07-23T05:35:10.680Z,5.45
2018-07-23T05:37:44.276Z,5.08
2018-07-23T05:40:17.785Z,5.08
2018-07-23T05:42:51.263Z,4.90
2018-07-23T05:45:24.815Z,4.60
2018-07-23T05:47:59.208Z,5.10
2018-07-23T05:50:32.812Z,5.08
2018-07-23T05:53:06.419Z,5.17
2018-07-23T05:55:39.917Z,5.30
2018-07-23T05:58:13.410Z,5.47
2018-07-23T06:00:46.983Z,4.62
2018-07-23T06:03:20.502Z,5.15
2018-07-23T06:05:54.099Z,3.98
2018-07-23T06:08:27.714Z,3.67
2018-07-23T06:11:01.326Z,3.60
2018-07-23T06:13:35.010Z,4.40
2018-07-23T06:16:08.599Z,2.67
2018-07-23T06:18:42.287Z,3.40
2018-07-23T06:21:15.961Z,3.05
2018-07-23T06:23:49.756Z,2.30
2018-07-23T06:26:23.266Z,2.05
2018-07-23T06:28:56.877Z,2.17
2018-07-23T06:31:30.568Z,1.82
2018-07-23T06:34:04.000Z,1.80
2018-07-23T06:36:37.580Z,2.10
2018-07-23T06:39:12.130Z,1.80
2018-07-23T06:41:45.664Z,1.87
2018-07-23T06:44:19.797Z,2.20
2018-07-23T06:46:53.367Z,1.80
2018-07-23T06:49:26.926Z,2.10
2018-07-23T06:52:00.555Z,2.10
2018-07-23T06:54:34.205Z,2.25
2018-07-23T06:57:07.643Z,2.30
2018-07-23T06:59:41.237Z,2.05
2018-07-23T07:02:14.848Z,2.10
2018-07-23T07:04:48.443Z,1.92
2018-07-23T07:07:22.013Z,1.77
2018-07-23T07:09:55.539Z,2.05
2018-07-23T07:12:29.021Z,2.00
2018-07-23T07:15:02.690Z,1.75
2018-07-23T07:17:36.243Z,1.98
2018-07-23T07:20:09.907Z,2.10
2018-07-23T07:22:43.553Z,1.90
2018-07-23T07:25:17.046Z,1.98
2018-07-23T07:27:50.578Z,1.95
2018-07-23T07:30:24.028Z,1.92
2018-07-23T07:32:57.583Z,2.05
2018-07-23T07:35:31.320Z,1.98
2018-07-23T07:38:05.170Z,1.85
2018-07-23T07:40:38.794Z,1.70
2018-07-23T07:43:12.326Z,1.92
2018-07-23T07:45:45.772Z,2.02
2018-07-23T07:48:19.404Z,1.77
2018-07-23T07:50:52.976Z,1.50
2018-07-23T07:53:26.712Z,1.65
2018-07-23T07:56:00.141Z,1.50
2018-07-23T07:58:33.733Z,1.65
2018-07-23T08:01:07.311Z,1.60
2018-07-23T08:03:40.755Z,1.70
2018-07-23T08:06:14.452Z,1.60
2018-07-23T08:08:48.030Z,1.72
2018-07-23T08:11:21.655Z,1.60
2018-07-23T08:13:55.088Z,1.82
2018-07-23T08:16:28.689Z,1.67
2018-07-23T08:19:02.160Z,1.72
2018-07-23T08:21:36.262Z,1.95
2018-07-23T08:24:09.800Z,1.75
2018-07-23T08:26:43.288Z,2.15
2018-07-23T08:29:16.819Z,1.70
2018-07-23T08:31:50.392Z,1.70
2018-07-23T08:34:23.931Z,1.60
2018-07-23T08:36:57.490Z,1.98
2018-07-23T08:39:31.046Z,1.98
2018-07-23T08:42:04.652Z,1.62
2018-07-23T08:44:38.257Z,1.87
2018-07-23T08:47:11.799Z,2.37
2018-07-23T08:49:45.465Z,1.80
2018-07-23T08:52:19.032Z,2.08
2018-07-23T08:54:52.624Z,1.90
2018-07-23T08:57:26.217Z,2.00
2018-07-23T08:59:59.870Z,1.87
2018-07-23T09:02:33.299Z,2.00
2018-07-23T09:05:07.057Z,1.87
2018-07-23T09:07:40.602Z,1.67
2018-07-23T09:10:14.029Z,2.02
2018-07-23T09:12:47.393Z,2.10
2018-07-23T09:15:20.768Z,2.22
2018-07-23T09:17:54.236Z,2.10
2018-07-23T09:20:27.600Z,1.80
2018-07-23T09:23:00.979Z,1.70
2018-07-23T09:25:39.667Z,2.00
2018-07-23T09:28:13.012Z,1.67
2018-07-23T09:30:51.600Z,2.20
2018-07-23T09:33:25.547Z,1.82
2018-07-23T09:35:58.976Z,2.20
2018-07-23T09:38:32.328Z,2.02
2018-07-23T09:41:05.772Z,1.90
2018-07-23T09:43:39.134Z,1.92
2018-07-23T09:46:12.521Z,1.65
2018-07-23T09:48:45.871Z,1.90
2018-07-23T09:51:19.264Z,1.90
2018-07-23T09:53:52.703Z,1.98
2018-07-23T09:56:26.064Z,1.95
2018-07-23T09:58:59.448Z,2.05
2018-07-23T10:01:32.861Z,2.00
2018-07-23T10:04:06.728Z,2.12
2018-07-23T10:06:40.092Z,2.00
2018-07-23T10:09:13.440Z,2.00
2018-07-23T10:11:46.809Z,2.10
2018-07-23T10:14:20.172Z,2.20
2018-07-23T10:16:53.653Z,2.05
2018-07-23T10:19:27.037Z,2.20
2018-07-23T10:22:00.459Z,2.20
2018-07-23T10:24:33.889Z,1.95
2018-07-23T10:27:08.072Z,2.12
2018-07-23T10:29:41.480Z,1.87
2018-07-23T10:32:14.858Z,1.98
2018-07-23T10:34:48.247Z,2.12
2018-07-23T10:37:21.704Z,2.30
2018-07-23T10:39:55.113Z,2.30
2018-07-23T10:42:28.506Z,2.00
2018-07-23T10:45:01.931Z,2.60
2018-07-23T10:47:35.275Z,2.20
2018-07-23T10:50:08.768Z,2.37
2018-07-23T10:52:42.232Z,2.27
2018-07-23T10:55:15.671Z,2.50
2018-07-23T10:57:49.053Z,1.92
2018-07-23T11:00:22.460Z,2.05
2018-07-23T11:02:55.850Z,2.70
2018-07-23T11:05:29.228Z,2.15
2018-07-23T11:08:02.630Z,2.10
2018-07-23T11:10:36.100Z,2.40
2018-07-23T11:13:09.463Z,2.10
2018-07-23T11:15:42.855Z,2.25
2018-07-23T11:18:16.255Z,2.08
2018-07-23T11:20:49.627Z,2.50
2018-07-23T11:23:22.997Z,2.12
2018-07-23T11:25:56.412Z,2.40
2018-07-23T11:28:29.804Z,2.70
2018-07-23T11:31:03.206Z,2.30
2018-07-23T11:33:36.568Z,2.08
2018-07-23T11:36:09.943Z,2.58
2018-07-23T11:38:43.338Z,2.40
2018-07-23T11:41:16.720Z,2.62
2018-07-23T11:43:50.091Z,2.02
2018-07-23T11:46:24.984Z,2.40
2018-07-23T11:48:56.848Z,2.10
2018-07-23T11:51:30.239Z,2.52
2018-07-23T11:54:04.309Z,2.12
2018-07-23T11:56:37.728Z,2.50
2018-07-23T11:59:11.059Z,2.30
2018-07-23T12:01:44.525Z,2.40
2018-07-23T12:04:17.931Z,2.27
2018-07-23T12:06:51.340Z,2.47
2018-07-23T12:09:24.671Z,2.40
2018-07-23T12:11:58.138Z,2.80
2018-07-23T12:14:31.498Z,2.35
2018-07-23T12:17:04.953Z,2.30
2018-07-23T12:19:38.334Z,2.10
2018-07-23T12:22:11.723Z,2.40
2018-07-23T12:24:45.110Z,2.20
2018-07-23T12:27:18.495Z,2.40
2018-07-23T12:29:51.854Z,2.45
2018-07-23T12:32:25.270Z,2.12
2018-07-23T12:34:58.625Z,2.37
2018-07-23T12:37:32.004Z,2.52
2018-07-23T12:40:05.911Z,2.42
2018-07-23T12:42:39.248Z,2.30
2018-07-23T12:45:12.609Z,2.12
2018-07-23T12:47:46.058Z,2.52
2018-07-23T12:50:19.440Z,2.67
2018-07-23T12:52:52.823Z,2.10
2018-07-23T12:55:26.184Z,2.47
2018-07-23T12:57:59.611Z,2.50
2018-07-23T13:00:33.026Z,2.90
2018-07-23T13:03:06.413Z,2.75
2018-07-23T13:05:39.757Z,2.50
2018-07-23T13:08:13.179Z,2.50
2018-07-23T13:10:46.571Z,2.40
2018-07-23T13:13:19.935Z,2.35
2018-07-23T13:15:53.281Z,2.40
2018-07-23T13:18:26.716Z,2.83
2018-07-23T13:21:00.094Z,2.55
2018-07-23T13:23:33.500Z,2.62
2018-07-23T13:26:07.128Z,2.35
2018-07-23T13:28:40.565Z,2.40
2018-07-23T13:31:13.933Z,2.25
2018-07-23T13:33:47.315Z,2.45
2018-07-23T13:36:20.701Z,2.60
2018-07-23T13:38:54.234Z,2.20
2018-07-23T13:41:27.588Z,2.50
2018-07-23T13:44:01.015Z,2.45
2018-07-23T13:46:34.375Z,2.33
2018-07-23T13:49:07.761Z,2.40
2018-07-23T13:51:41.142Z,2.27
2018-07-23T13:54:14.530Z,2.50
2018-07-23T13:56:47.867Z,2.27
2018-07-23T13:59:21.228Z,2.62
2018-07-23T14:01:54.578Z,2.62
2018-07-23T14:04:27.944Z,2.40
2018-07-23T14:07:01.336Z,2.40
2018-07-23T14:09:34.721Z,2.45
2018-07-23T14:12:08.118Z,2.50
2018-07-23T14:14:41.491Z,2.62
2018-07-23T14:17:14.841Z,2.37
2018-07-23T14:19:48.252Z,2.65
2018-07-23T14:22:21.797Z,3.45
2018-07-23T14:24:55.216Z,3.05
2018-07-23T14:27:28.646Z,6.50
2018-07-23T14:30:02.141Z,4.58
2018-07-23T14:32:35.538Z,3.20
2018-07-23T14:35:08.917Z,2.62
2018-07-23T14:37:42.306Z,2.30
2018-07-23T14:40:15.696Z,2.50
2018-07-23T14:42:49.120Z,2.20
2018-07-23T14:45:22.485Z,2.50
2018-07-23T14:47:55.883Z,2.15
2018-07-23T14:50:29.255Z,2.47
2018-07-23T14:53:02.675Z,3.05
2018-07-23T14:55:36.092Z,2.72
2018-07-23T14:58:09.497Z,3.10
2018-07-23T15:00:42.890Z,2.60
2018-07-23T15:03:16.272Z,2.40
2018-07-23T15:05:49.656Z,2.50
2018-07-23T15:08:23.038Z,2.30
2018-07-23T15:10:56.417Z,2.20
2018-07-23T15:13:29.819Z,2.47
2018-07-23T15:16:03.214Z,2.65
2018-07-23T15:18:36.611Z,2.55
2018-07-23T15:21:09.976Z,2.50
2018-07-23T15:23:43.356Z,2.30
2018-07-23T15:26:16.715Z,2.37
2018-07-23T15:28:50.115Z,2.40
2018-07-23T15:31:23.514Z,2.52
2018-07-23T15:33:56.888Z,2.20
2018-07-23T15:36:30.259Z,2.62
2018-07-23T15:39:04.576Z,2.45
2018-07-23T15:41:38.101Z,2.50
2018-07-23T15:44:11.839Z,2.40
2018-07-23T15:46:45.089Z,2.30
2018-07-23T15:49:18.671Z,2.40
2018-07-23T15:51:52.032Z,2.50
2018-07-23T15:54:25.456Z,2.12
2018-07-23T15:56:58.799Z,2.90
2018-07-23T15:59:32.164Z,2.60
2018-07-23T16:02:05.547Z,2.40
2018-07-23T16:04:39.047Z,2.67
2018-07-23T16:07:12.404Z,2.40
2018-07-23T16:09:45.864Z,2.40
2018-07-23T16:12:19.223Z,2.47
2018-07-23T16:14:52.735Z,2.27
2018-07-23T16:17:26.205Z,2.52
2018-07-23T16:20:00.003Z,2.40
2018-07-23T16:22:33.427Z,2.35
2018-07-23T16:25:07.580Z,2.15
2018-07-23T16:27:41.090Z,2.27
2018-07-23T16:30:15.185Z,2.35
2018-07-23T16:32:48.592Z,2.50
2018-07-23T16:35:22.050Z,2.67
2018-07-23T16:37:55.499Z,2.35
2018-07-23T16:40:29.504Z,2.67
2018-07-23T16:43:03.111Z,2.42
2018-07-23T16:45:36.516Z,2.75
2018-07-23T16:48:09.869Z,2.60
2018-07-23T16:50:43.244Z,2.87
2018-07-23T16:53:16.676Z,2.87
2018-07-23T16:55:50.083Z,2.50
2018-07-23T16:58:23.659Z,2.75
2018-07-23T17:00:57.038Z,2.70
2018-07-23T17:03:30.478Z,3.00
2018-07-23T17:06:04.055Z,2.70
2018-07-23T17:08:37.418Z,2.25
2018-07-23T17:11:10.782Z,2.72
2018-07-23T17:13:44.255Z,2.75
2018-07-23T17:16:17.678Z,2.67
2018-07-23T17:18:51.045Z,2.90
2018-07-23T17:21:24.481Z,2.95
2018-07-23T17:23:57.816Z,2.80
2018-07-23T17:26:31.395Z,2.45
2018-07-23T17:29:04.746Z,2.72
2018-07-23T17:31:38.142Z,2.70
2018-07-23T17:34:11.534Z,2.50
2018-07-23T17:36:44.917Z,2.77
2018-07-23T17:39:18.279Z,2.70
2018-07-23T17:41:51.653Z,2.95
2018-07-23T17:44:25.003Z,2.90
2018-07-23T17:46:58.387Z,2.83
2018-07-23T17:49:31.747Z,2.62
2018-07-23T17:52:05.178Z,2.40
2018-07-23T17:54:39.125Z,2.62
2018-07-23T17:57:12.528Z,2.65
2018-07-23T17:59:45.889Z,2.72
2018-07-23T18:02:20.215Z,2.72
2018-07-23T18:04:53.974Z,2.90
2018-07-23T18:07:28.231Z,2.87
2018-07-23T18:10:02.433Z,2.52
2018-07-23T18:12:36.555Z,2.77
2018-07-23T18:15:12.137Z,2.90
2018-07-23T18:17:45.659Z,2.50
2018-07-23T18:20:19.112Z,3.02
2018-07-23T18:22:52.896Z,2.98
2018-07-23T18:25:26.642Z,2.92
2018-07-23T18:28:00.446Z,2.87
2018-07-23T18:30:33.841Z,2.70
2018-07-23T18:33:07.263Z,2.80
2018-07-23T18:35:40.695Z,2.60
2018-07-23T18:38:14.517Z,2.77
2018-07-23T18:40:48.268Z,2.90
2018-07-23T18:43:22.187Z,2.87
2018-07-23T18:45:56.076Z,2.90
2018-07-23T18:49:53.779Z,2.87
2018-07-23T18:52:28.323Z,3.05
2018-07-23T18:55:02.840Z,2.80
2018-07-23T18:57:36.402Z,2.80
2018-07-23T19:00:10.212Z,3.00
2018-07-23T19:02:43.586Z,2.75
2018-07-23T19:05:16.979Z,2.72
2018-07-23T19:07:50.351Z,3.08
2018-07-23T19:10:23.756Z,2.80
2018-07-23T19:12:57.112Z,3.08
2018-07-23T19:15:30.588Z,2.90
2018-07-23T19:18:03.995Z,3.02
2018-07-23T19:20:37.391Z,2.65
2018-07-23T19:23:10.763Z,3.08
2018-07-23T19:25:44.161Z,2.70
2018-07-23T19:28:17.531Z,3.00
2018-07-23T19:30:51.000Z,2.58
2018-07-23T19:33:24.385Z,3.33
2018-07-23T19:35:57.840Z,3.08
2018-07-23T19:38:31.247Z,3.27
2018-07-23T19:41:04.703Z,2.72
2018-07-23T19:43:38.838Z,4.10
2018-07-23T19:46:12.508Z,3.10
2018-07-23T19:48:45.955Z,3.52
2018-07-23T19:51:19.336Z,3.47
2018-07-23T19:53:52.700Z,3.45
2018-07-23T19:56:26.085Z,3.65
2018-07-23T19:58:59.463Z,3.10
2018-07-23T20:01:33.099Z,3.20
2018-07-23T20:04:06.676Z,3.50
2018-07-23T20:06:40.132Z,3.62
2018-07-23T20:09:13.653Z,3.70
2018-07-23T20:11:47.039Z,3.25
2018-07-23T20:14:20.498Z,3.50
2018-07-23T20:16:53.896Z,3.62
2018-07-23T20:19:27.450Z,3.72
2018-07-23T20:22:00.856Z,3.90
2018-07-23T20:24:35.297Z,3.37
2018-07-23T20:27:08.715Z,3.40
2018-07-23T20:29:42.153Z,3.58
2018-07-23T20:32:16.636Z,3.60
2018-07-23T20:34:50.058Z,3.75
2018-07-23T20:37:24.107Z,4.08
2018-07-23T20:39:57.528Z,4.00
2018-07-23T20:42:31.255Z,4.37
2018-07-23T20:45:05.115Z,3.80
2018-07-23T20:47:38.591Z,3.77
2018-07-23T20:50:12.018Z,3.62
2018-07-23T20:52:45.837Z,4.00
2018-07-23T20:55:19.251Z,4.15
2018-07-23T20:57:52.726Z,4.28
2018-07-23T21:00:26.160Z,4.08
2018-07-23T21:02:59.544Z,4.22
2018-07-23T21:05:33.334Z,4.15
2018-07-23T21:08:06.852Z,4.25
2018-07-23T21:10:40.226Z,4.10
2018-07-23T21:13:13.629Z,4.30
2018-07-23T21:15:47.053Z,4.80
2018-07-23T21:18:20.499Z,4.15
2018-07-23T21:20:53.927Z,4.03
2018-07-23T21:23:27.368Z,4.20
2018-07-23T21:26:00.867Z,3.85
2018-07-23T21:28:34.288Z,4.45
2018-07-23T21:31:08.147Z,3.67
2018-07-23T21:33:41.555Z,4.30
2018-07-23T21:36:14.964Z,4.47
2018-07-23T21:38:48.365Z,4.25
2018-07-23T21:41:21.761Z,4.53
2018-07-23T21:43:55.199Z,4.58
2018-07-23T21:46:28.624Z,4.37
2018-07-23T21:49:02.104Z,4.03
2018-07-23T21:51:35.510Z,4.08
2018-07-23T21:54:09.000Z,4.55
2018-07-23T21:56:42.371Z,4.33
2018-07-23T21:59:15.850Z,4.08
2018-07-23T22:01:49.269Z,4.40
2018-07-23T22:04:22.666Z,4.12
2018-07-23T22:06:56.045Z,4.83
2018-07-23T22:09:29.496Z,4.72
2018-07-23T22:12:02.953Z,4.25
2018-07-23T22:14:36.360Z,4.53
2018-07-23T22:17:09.771Z,4.12
2018-07-23T22:19:43.196Z,4.60
2018-07-23T22:22:16.581Z,4.30
2018-07-23T22:24:50.021Z,5.00
2018-07-23T22:27:23.503Z,4.42
2018-07-23T22:29:56.885Z,4.62
2018-07-23T22:32:30.325Z,4.92
2018-07-23T22:35:03.741Z,4.42
2018-07-23T22:37:37.207Z,4.22
2018-07-23T22:40:10.563Z,4.75
2018-07-23T22:42:44.009Z,4.65
2018-07-23T22:45:17.402Z,4.72
2018-07-23T22:47:50.787Z,4.20
2018-07-23T22:50:24.205Z,4.62
2018-07-23T22:52:57.711Z,4.50
2018-07-23T22:55:31.085Z,5.03
2018-07-23T22:58:04.817Z,4.47
2018-07-23T23:00:38.219Z,4.70
2018-07-23T23:03:11.594Z,4.70
2018-07-23T23:05:44.984Z,4.97
2018-07-23T23:08:18.431Z,4.47
2018-07-23T23:10:51.839Z,5.22
2018-07-23T23:13:25.268Z,4.55
2018-07-23T23:15:58.736Z,4.53
2018-07-23T23:18:32.191Z,4.60
2018-07-23T23:21:05.589Z,5.15
2018-07-23T23:23:39.083Z,4.97
2018-07-23T23:26:12.455Z,4.65
2018-07-23T23:28:45.836Z,5.12
2018-07-23T23:31:19.214Z,4.80
2018-07-23T23:33:52.609Z,5.08
2018-07-23T23:36:26.007Z,5.28
2018-07-23T23:38:59.433Z,5.12
2018-07-23T23:41:32.825Z,6.25
2018-07-23T23:44:06.257Z,5.03
2018-07-23T23:46:39.697Z,4.90
2018-07-23T23:49:13.079Z,5.33
2018-07-23T23:51:46.459Z,5.30
2018-07-23T23:54:19.859Z,6.22
2018-07-23T23:56:53.252Z,5.67
2018-07-23T23:59:26.660Z,5.33
